createdAt,value
2023-07-07T00:03:24.939Z,14.30
2023-07-07T00:07:30.607Z,14.20
2023-07-07T00:11:36.251Z,14.20
2023-07-07T00:15:45.420Z,14.20
2023-07-07T00:19:50.941Z,14.20
2023-07-07T00:23:57.637Z,14.10
2023-07-07T00:28:02.996Z,14.10
2023-07-07T00:32:08.774Z,14.00
2023-07-07T00:36:14.250Z,14.30
2023-07-07T00:40:20.343Z,14.10
2023-07-07T00:44:31.259Z,14.00
2023-07-07T00:48:44.758Z,13.90
2023-07-07T00:52:50.134Z,13.80
2023-07-07T00:56:55.904Z,13.70
2023-07-07T01:01:07.516Z,13.70
2023-07-07T01:05:12.857Z,13.60
2023-07-07T01:09:18.208Z,13.50
2023-07-07T01:13:23.975Z,13.50
2023-07-07T01:18:04.393Z,13.40
2023-07-07T01:22:56.573Z,13.40
2023-07-07T01:27:31.363Z,13.80
2023-07-07T01:31:44.352Z,14.00
2023-07-07T01:35:50.046Z,14.00
2023-07-07T01:39:56.061Z,14.10
2023-07-07T01:44:39.332Z,14.10
2023-07-07T01:49:08.113Z,14.10
2023-07-07T01:53:23.288Z,14.10
2023-07-07T01:57:29.613Z,14.10
2023-07-07T02:01:36.124Z,14.00
2023-07-07T02:05:41.692Z,14.00
2023-07-07T02:09:47.152Z,14.00
2023-07-07T02:13:52.659Z,14.00
2023-07-07T02:17:58.421Z,13.90
2023-07-07T02:22:04.191Z,13.90
2023-07-07T02:26:10.278Z,13.80
2023-07-07T02:30:16.120Z,13.80
2023-07-07T02:34:21.602Z,13.80
2023-07-07T02:38:27.337Z,13.70
2023-07-07T02:42:32.812Z,13.70
2023-07-07T02:46:38.389Z,13.70
2023-07-07T02:50:43.918Z,13.60
2023-07-07T02:54:49.426Z,13.60
2023-07-07T02:58:54.932Z,13.50
2023-07-07T03:03:00.459Z,13.50
2023-07-07T03:07:06.328Z,13.50
2023-07-07T03:11:15.722Z,13.50
2023-07-07T03:15:21.910Z,13.00
2023-07-07T03:19:27.445Z,12.80
2023-07-07T03:23:32.978Z,12.60
2023-07-07T03:27:38.504Z,12.50
2023-07-07T03:31:44.030Z,12.50
2023-07-07T03:35:52.090Z,12.50
2023-07-07T03:39:57.634Z,12.40
2023-07-07T03:44:03.150Z,12.40
2023-07-07T03:48:08.616Z,12.40
2023-07-07T03:52:14.165Z,12.40
2023-07-07T03:56:21.299Z,12.40
2023-07-07T04:00:27.083Z,12.40
2023-07-07T04:04:32.931Z,12.40
2023-07-07T04:08:38.546Z,12.50
2023-07-07T04:12:44.027Z,12.60
2023-07-07T04:16:49.659Z,12.60
2023-07-07T04:20:55.872Z,12.70
2023-07-07T04:25:12.925Z,12.80
2023-07-07T04:29:18.618Z,12.90
2023-07-07T04:33:26.181Z,13.00
2023-07-07T04:37:33.023Z,13.10
2023-07-07T04:41:38.646Z,13.20
2023-07-07T04:45:46.902Z,13.30
2023-07-07T04:49:52.496Z,13.40
2023-07-07T04:53:57.997Z,13.50
2023-07-07T04:58:03.462Z,13.60
2023-07-07T05:02:08.930Z,13.60
2023-07-07T05:06:14.961Z,13.70
2023-07-07T05:10:20.463Z,13.80
2023-07-07T05:14:26.047Z,13.90
2023-07-07T05:18:32.310Z,14.00
2023-07-07T05:22:37.911Z,14.20
2023-07-07T05:26:45.549Z,14.30
2023-07-07T05:30:51.481Z,14.40
2023-07-07T05:34:57.035Z,14.60
2023-07-07T05:39:02.592Z,14.70
2023-07-07T05:43:08.065Z,14.80
2023-07-07T05:47:13.644Z,15.00
2023-07-07T05:51:20.679Z,15.10
2023-07-07T05:55:35.891Z,15.30
2023-07-07T05:59:41.367Z,15.50
2023-07-07T06:03:47.237Z,15.70
2023-07-07T06:07:54.688Z,15.90
2023-07-07T06:12:00.854Z,16.10
2023-07-07T06:16:07.091Z,16.30
2023-07-07T06:20:14.519Z,16.50
2023-07-07T06:24:20.000Z,16.70
2023-07-07T06:28:25.381Z,16.90
2023-07-07T06:32:30.735Z,17.20
2023-07-07T06:36:36.284Z,17.30
2023-07-07T06:40:41.664Z,17.50
2023-07-07T06:44:47.301Z,17.80
2023-07-07T06:48:52.892Z,18.00
2023-07-07T06:52:58.404Z,18.30
2023-07-07T06:57:04.146Z,18.50
2023-07-07T07:01:14.226Z,18.70
2023-07-07T07:05:20.053Z,19.00
2023-07-07T07:09:25.485Z,19.20
2023-07-07T07:13:30.962Z,19.40
2023-07-07T07:17:36.837Z,19.70
2023-07-07T07:21:42.533Z,19.90
2023-07-07T07:25:49.953Z,20.10
2023-07-07T07:29:55.420Z,20.30
2023-07-07T07:34:26.611Z,20.50
2023-07-07T07:38:32.140Z,20.70
2023-07-07T07:42:37.607Z,20.90
2023-07-07T07:46:45.766Z,21.20
2023-07-07T07:50:51.284Z,21.40
2023-07-07T07:54:56.777Z,21.50
2023-07-07T07:59:06.373Z,21.70
2023-07-07T08:03:13.591Z,21.90
2023-07-07T08:07:19.165Z,22.20
2023-07-07T08:11:47.618Z,22.30
2023-07-07T08:15:53.080Z,22.60
2023-07-07T08:19:59.255Z,22.70
2023-07-07T08:24:07.005Z,22.90
2023-07-07T08:28:12.730Z,23.10
2023-07-07T08:32:22.909Z,23.30
2023-07-07T08:36:28.489Z,23.40
2023-07-07T08:40:53.356Z,23.60
2023-07-07T08:45:02.096Z,23.80
2023-07-07T08:49:18.721Z,23.90
2023-07-07T08:53:43.054Z,24.20
2023-07-07T08:58:00.594Z,24.30
2023-07-07T09:02:46.102Z,24.50
2023-07-07T09:07:28.289Z,24.60
2023-07-07T09:12:01.754Z,24.80
2023-07-07T09:16:15.491Z,25.10
2023-07-07T09:20:23.987Z,25.30
2023-07-07T09:25:21.355Z,25.40
2023-07-07T09:29:31.616Z,25.60
2023-07-07T09:33:37.157Z,25.60
2023-07-07T09:38:03.957Z,25.50
2023-07-07T09:42:44.045Z,25.40
2023-07-07T09:47:24.317Z,25.20
2023-07-07T09:51:56.682Z,25.30
2023-07-07T09:56:04.043Z,25.30
2023-07-07T10:00:22.619Z,25.30
2023-07-07T10:04:33.070Z,25.40
2023-07-07T10:08:38.679Z,25.60
2023-07-07T10:12:46.409Z,25.90
2023-07-07T10:17:09.930Z,26.10
2023-07-07T10:21:16.441Z,26.30
2023-07-07T10:25:22.478Z,26.30
2023-07-07T10:29:41.675Z,26.20
2023-07-07T10:33:52.183Z,26.20
2023-07-07T10:38:04.286Z,26.30
2023-07-07T10:42:10.831Z,26.40
2023-07-07T10:46:16.769Z,26.50
2023-07-07T10:50:26.682Z,26.70
2023-07-07T10:55:03.083Z,26.90
2023-07-07T10:59:44.339Z,27.00
2023-07-07T11:04:28.124Z,27.20
2023-07-07T11:09:13.321Z,27.30
2023-07-07T11:13:33.726Z,27.60
2023-07-07T11:18:12.823Z,27.70
2023-07-07T11:22:51.657Z,27.80
2023-07-07T11:27:27.940Z,27.80
2023-07-07T11:32:09.517Z,27.80
2023-07-07T11:36:48.593Z,28.00
2023-07-07T11:41:37.912Z,28.20
2023-07-07T11:46:36.625Z,28.30
2023-07-07T11:51:00.169Z,28.30
2023-07-07T11:55:54.733Z,28.20
2023-07-07T12:00:35.698Z,28.20
2023-07-07T12:04:44.589Z,28.30
2023-07-07T12:09:04.317Z,28.70
2023-07-07T12:13:15.804Z,28.80
2023-07-07T12:17:27.883Z,28.90
2023-07-07T12:21:38.129Z,29.10
2023-07-07T12:25:43.856Z,29.20
2023-07-07T12:29:51.709Z,29.30
2023-07-07T12:33:57.382Z,29.40
2023-07-07T12:38:28.074Z,29.40
2023-07-07T12:42:34.534Z,29.50
2023-07-07T12:46:40.280Z,29.50
2023-07-07T12:50:46.681Z,29.50
2023-07-07T12:54:55.083Z,29.60
2023-07-07T12:59:02.838Z,29.70
2023-07-07T13:03:11.148Z,29.90
2023-07-07T13:07:28.215Z,29.90
2023-07-07T13:11:36.507Z,29.90
2023-07-07T13:15:42.067Z,29.90
2023-07-07T13:19:52.242Z,30.00
2023-07-07T13:23:58.181Z,30.20
2023-07-07T13:28:11.599Z,30.40
2023-07-07T13:32:34.714Z,30.40
2023-07-07T13:36:40.234Z,30.50
2023-07-07T13:40:47.152Z,30.60
2023-07-07T13:44:58.923Z,30.50
2023-07-07T13:49:13.979Z,30.60
2023-07-07T13:53:20.765Z,30.70
2023-07-07T13:57:34.574Z,30.80
2023-07-07T14:01:40.600Z,31.00
2023-07-07T14:05:49.912Z,31.20
2023-07-07T14:09:55.434Z,31.30
2023-07-07T14:14:02.326Z,31.10
2023-07-07T14:18:12.355Z,30.90
2023-07-07T14:22:18.379Z,30.90
2023-07-07T14:26:24.412Z,31.10
2023-07-07T14:30:29.924Z,31.50
2023-07-07T14:34:52.397Z,31.40
2023-07-07T14:39:00.997Z,31.50
2023-07-07T14:43:25.077Z,31.60
2023-07-07T14:47:36.535Z,31.50
2023-07-07T14:51:51.932Z,31.30
2023-07-07T14:55:57.534Z,31.50
2023-07-07T15:00:38.662Z,31.80
2023-07-07T15:04:46.354Z,32.10
2023-07-07T15:08:53.670Z,31.90
2023-07-07T15:12:59.140Z,31.90
2023-07-07T15:17:04.947Z,32.10
2023-07-07T15:21:23.530Z,32.40
2023-07-07T15:25:29.242Z,32.20
2023-07-07T15:29:34.871Z,32.10
2023-07-07T15:33:40.361Z,32.10
2023-07-07T15:37:49.081Z,32.10
2023-07-07T15:41:54.578Z,32.30
2023-07-07T15:46:00.333Z,32.10
2023-07-07T15:50:20.057Z,32.10
2023-07-07T15:54:25.573Z,31.90
2023-07-07T15:58:31.060Z,31.60
2023-07-07T16:02:36.540Z,31.30
2023-07-07T16:06:42.181Z,31.40
2023-07-07T16:10:47.675Z,31.50
2023-07-07T16:14:53.147Z,31.40
2023-07-07T16:18:58.627Z,31.20
2023-07-07T16:23:04.181Z,31.20
2023-07-07T16:27:18.942Z,31.30
2023-07-07T16:31:27.725Z,31.30
2023-07-07T16:35:33.334Z,31.00
2023-07-07T16:39:39.153Z,30.90
2023-07-07T16:43:44.709Z,30.80
2023-07-07T16:47:50.783Z,30.60
2023-07-07T16:51:56.293Z,30.50
2023-07-07T16:56:02.765Z,30.30
2023-07-07T17:00:31.975Z,30.40
2023-07-07T17:04:37.439Z,30.50
2023-07-07T17:08:42.954Z,30.30
2023-07-07T17:12:48.893Z,30.30
2023-07-07T17:16:54.429Z,30.20
2023-07-07T17:21:00.080Z,30.20
2023-07-07T17:25:06.093Z,30.20
2023-07-07T17:29:16.380Z,30.20
2023-07-07T17:33:21.875Z,30.00
2023-07-07T17:37:27.705Z,30.00
2023-07-07T17:41:33.166Z,29.90
2023-07-07T17:45:38.613Z,29.80
2023-07-07T17:49:44.078Z,29.60
2023-07-07T17:53:49.655Z,29.40
2023-07-07T17:57:55.639Z,29.20
2023-07-07T18:02:01.194Z,29.10
2023-07-07T18:06:27.803Z,28.80
2023-07-07T18:10:35.311Z,28.60
2023-07-07T18:14:40.770Z,28.30
2023-07-07T18:19:01.195Z,28.20
2023-07-07T18:23:13.264Z,28.20
2023-07-07T18:27:18.775Z,28.00
2023-07-07T18:31:35.416Z,27.80
2023-07-07T18:35:41.037Z,27.60
2023-07-07T18:39:48.863Z,27.30
2023-07-07T18:43:55.646Z,27.10
2023-07-07T18:48:01.654Z,26.90
2023-07-07T18:52:09.195Z,26.60
2023-07-07T18:56:34.214Z,26.40
2023-07-07T19:00:42.814Z,26.30
2023-07-07T19:04:48.284Z,26.20
2023-07-07T19:08:53.966Z,26.10
2023-07-07T19:13:22.375Z,25.90
2023-07-07T19:17:28.157Z,25.70
2023-07-07T19:21:33.852Z,25.50
2023-07-07T19:25:39.405Z,25.20
2023-07-07T19:29:44.987Z,25.00
2023-07-07T19:33:51.003Z,24.90
2023-07-07T19:37:56.434Z,24.80
2023-07-07T19:42:01.963Z,24.60
2023-07-07T19:46:32.165Z,24.50
2023-07-07T19:50:39.566Z,24.30
2023-07-07T19:54:48.446Z,24.10
2023-07-07T19:58:58.678Z,24.00
2023-07-07T20:03:04.538Z,23.80
2023-07-07T20:07:13.861Z,23.60
2023-07-07T20:11:26.620Z,23.40
2023-07-07T20:15:32.291Z,23.20
2023-07-07T20:19:37.811Z,23.10
2023-07-07T20:23:43.877Z,22.90
2023-07-07T20:27:50.640Z,22.70
2023-07-07T20:31:56.512Z,22.50
2023-07-07T20:36:02.188Z,22.40
2023-07-07T20:40:27.875Z,22.20
2023-07-07T20:44:33.353Z,22.00
2023-07-07T20:48:38.953Z,21.90
2023-07-07T20:52:44.769Z,21.70
2023-07-07T20:56:50.402Z,21.60
2023-07-07T21:00:56.636Z,21.40
2023-07-07T21:05:02.999Z,21.20
2023-07-07T21:09:13.753Z,21.10
2023-07-07T21:13:23.355Z,21.10
2023-07-07T21:17:29.141Z,20.90
2023-07-07T21:21:36.173Z,20.70
2023-07-07T21:25:48.123Z,20.40
2023-07-07T21:29:53.610Z,20.30
2023-07-07T21:33:59.160Z,20.10
2023-07-07T21:38:12.666Z,20.00
2023-07-07T21:42:18.141Z,19.90
2023-07-07T21:46:23.672Z,19.70
2023-07-07T21:50:29.189Z,19.60
2023-07-07T21:54:34.518Z,19.40
2023-07-07T21:58:39.811Z,19.20
2023-07-07T22:02:47.378Z,19.10
2023-07-07T22:06:52.669Z,18.90
2023-07-07T22:10:58.329Z,18.80
2023-07-07T22:15:04.144Z,18.70
2023-07-07T22:19:13.105Z,19.10
2023-07-07T22:23:18.783Z,18.80
2023-07-07T22:27:24.265Z,18.60
2023-07-07T22:31:29.750Z,18.50
2023-07-07T22:35:35.241Z,18.40
2023-07-07T22:39:40.642Z,18.30
2023-07-07T22:43:46.027Z,18.10
2023-07-07T22:47:53.007Z,18.00
2023-07-07T22:51:58.401Z,17.90
2023-07-07T22:56:03.909Z,17.80
2023-07-07T23:00:27.252Z,17.60
2023-07-07T23:04:32.634Z,17.60
2023-07-07T23:08:37.935Z,17.50
2023-07-07T23:12:44.433Z,17.40
2023-07-07T23:16:50.158Z,17.30
2023-07-07T23:20:55.478Z,17.20
2023-07-07T23:25:01.437Z,17.10
2023-07-07T23:29:13.652Z,17.10
2023-07-07T23:33:19.993Z,17.50
2023-07-07T23:37:31.063Z,17.20
2023-07-07T23:41:36.586Z,17.10
2023-07-07T23:45:43.451Z,17.00
2023-07-07T23:49:48.907Z,16.90
2023-07-07T23:53:54.407Z,16.80
2023-07-07T23:58:01.076Z,16.70
